Time,TemperatureF,DewpointF,PressureIn,WindDirection,WindDirectionDegrees,WindSpeedMPH,WindSpeedGustMPH,Humidity,HourlyPrecipIn,Conditions,Clouds,dailyrainin,SolarRadiationWatts/m^2,SoftwareType,DateUTC
2013-09-02 00:02:00,76.0,68.0,-100.00,North,4,4.0,13.0,77,0.00,,,0.00,0.000000,,2013-09-02 05:02:00,
2013-09-02 00:23:00,76.0,68.0,-100.00,North,4,4.0,13.0,77,0.00,,,0.00,0.000000,,2013-09-02 05:23:00,
2013-09-02 00:34:00,76.0,68.0,-100.00,North,4,4.0,13.0,77,0.00,,,0.00,0.000000,,2013-09-02 05:34:00,
2013-09-02 00:44:00,76.0,68.0,-100.00,North,4,4.0,13.0,77,0.00,,,0.00,0.000000,,2013-09-02 05:44:00,
2013-09-02 00:52:00,76.0,68.0,-100.00,North,4,4.0,13.0,77,0.00,,,0.00,0.000000,,2013-09-02 05:52:00,
2013-09-02 01:22:00,75.0,70.0,-100.00,NE,47,5.0,17.0,85,0.48,,,0.48,0.000000,,2013-09-02 06:22:00,
2013-09-02 01:32:00,75.0,70.0,-100.00,NE,47,5.0,17.0,85,0.48,,,0.48,0.000000,,2013-09-02 06:32:00,
2013-09-02 01:43:00,75.0,70.0,-100.00,NE,47,5.0,17.0,85,0.48,,,0.48,0.000000,,2013-09-02 06:43:00,
2013-09-02 01:52:00,75.0,70.0,-100.00,NE,47,5.0,17.0,85,0.48,,,0.48,0.000000,,2013-09-02 06:52:00,
2013-09-02 02:01:00,75.0,70.0,-100.00,NE,47,5.0,17.0,85,0.48,,,0.48,0.000000,,2013-09-02 07:01:00,
2013-09-02 02:02:00,73.0,70.0,-100.00,SSW,198,2.0,6.0,90,0.03,,,0.51,0.000000,,2013-09-02 07:02:00,
2013-09-02 02:22:00,73.0,70.0,-100.00,SSW,198,2.0,6.0,90,0.03,,,0.51,0.000000,,2013-09-02 07:22:00,
2013-09-02 02:33:00,73.0,70.0,-100.00,SSW,198,2.0,6.0,90,0.03,,,0.51,0.000000,,2013-09-02 07:33:00,
2013-09-02 02:42:00,73.0,70.0,-100.00,SSW,198,2.0,6.0,90,0.03,,,0.51,0.000000,,2013-09-02 07:42:00,
2013-09-02 02:52:00,73.0,70.0,-100.00,SSW,198,2.0,6.0,90,0.03,,,0.51,0.000000,,2013-09-02 07:52:00,
2013-09-02 03:22:00,74.0,71.0,-100.00,West,262,3.0,6.0,89,0.01,,,0.52,0.000000,,2013-09-02 08:22:00,
2013-09-02 03:32:00,74.0,71.0,-100.00,West,262,3.0,6.0,89,0.01,,,0.52,0.000000,,2013-09-02 08:32:00,
2013-09-02 03:42:00,74.0,71.0,-100.00,West,262,3.0,6.0,89,0.01,,,0.52,0.000000,,2013-09-02 08:42:00,
2013-09-02 03:52:00,74.0,71.0,-100.00,West,262,3.0,6.0,89,0.01,,,0.52,0.000000,,2013-09-02 08:52:00,
2013-09-02 04:01:00,74.0,71.0,-100.00,West,262,3.0,6.0,89,0.01,,,0.52,0.000000,,2013-09-02 09:01:00,
2013-09-02 04:02:00,74.0,71.0,-100.00,ENE,58,3.0,7.0,90,0.00,,,0.52,0.000000,,2013-09-02 09:02:00,
2013-09-02 04:22:00,74.0,71.0,-100.00,ENE,58,3.0,7.0,90,0.00,,,0.52,0.000000,,2013-09-02 09:22:00,
2013-09-02 04:34:00,74.0,71.0,-100.00,ENE,58,3.0,7.0,90,0.00,,,0.52,0.000000,,2013-09-02 09:34:00,
2013-09-02 04:44:00,74.0,71.0,-100.00,ENE,58,3.0,7.0,90,0.00,,,0.52,0.000000,,2013-09-02 09:44:00,
2013-09-02 04:53:00,74.0,71.0,-100.00,ENE,58,3.0,7.0,90,0.00,,,0.52,0.000000,,2013-09-02 09:53:00,
2013-09-02 05:02:00,72.0,68.0,-100.00,WSW,241,7.0,24.0,87,0.08,,,0.60,0.000000,,2013-09-02 10:02:00,
2013-09-02 05:23:00,72.0,68.0,-100.00,WSW,241,7.0,24.0,87,0.08,,,0.60,0.000000,,2013-09-02 10:23:00,
2013-09-02 05:33:00,72.0,68.0,-100.00,WSW,241,7.0,24.0,87,0.08,,,0.60,0.000000,,2013-09-02 10:33:00,
2013-09-02 05:42:00,72.0,68.0,-100.00,WSW,241,7.0,24.0,87,0.08,,,0.60,0.000000,,2013-09-02 10:42:00,
2013-09-02 05:53:00,72.0,68.0,-100.00,WSW,241,7.0,24.0,87,0.08,,,0.60,0.000000,,2013-09-02 10:53:00,
2013-09-02 06:02:00,72.0,68.0,-100.00,ESE,102,2.0,11.0,88,0.00,,,0.60,0.000000,,2013-09-02 11:02:00,
2013-09-02 06:22:00,72.0,68.0,-100.00,ESE,102,2.0,11.0,88,0.00,,,0.60,0.000000,,2013-09-02 11:22:00,
2013-09-02 06:33:00,72.0,68.0,-100.00,ESE,102,2.0,11.0,88,0.00,,,0.60,0.000000,,2013-09-02 11:33:00,
2013-09-02 06:42:00,72.0,68.0,-100.00,ESE,102,2.0,11.0,88,0.00,,,0.60,0.000000,,2013-09-02 11:42:00,
2013-09-02 06:52:00,72.0,68.0,-100.00,ESE,102,2.0,11.0,88,0.00,,,0.60,0.000000,,2013-09-02 11:52:00,
2013-09-02 07:02:00,72.0,69.0,-100.00,ESE,113,0.0,5.0,90,0.00,,,0.60,0.000000,,2013-09-02 12:02:00,
2013-09-02 07:21:00,72.0,69.0,-100.00,ESE,113,0.0,5.0,90,0.00,,,0.60,0.000000,,2013-09-02 12:21:00,
2013-09-02 07:32:00,72.0,69.0,-100.00,ESE,113,0.0,5.0,90,0.00,,,0.60,0.000000,,2013-09-02 12:32:00,
2013-09-02 07:43:00,72.0,69.0,-100.00,ESE,113,0.0,5.0,90,0.00,,,0.60,0.000000,,2013-09-02 12:43:00,
2013-09-02 07:52:00,72.0,69.0,-100.00,ESE,113,0.0,5.0,90,0.00,,,0.60,0.000000,,2013-09-02 12:52:00,
2013-09-02 08:02:00,73.0,70.0,-100.00,NNW,332,1.0,4.0,91,0.00,,,0.60,23.000000,,2013-09-02 13:02:00,
2013-09-02 08:22:00,73.0,70.0,-100.00,NNW,332,1.0,4.0,91,0.00,,,0.60,23.000000,,2013-09-02 13:22:00,
2013-09-02 08:32:00,73.0,70.0,-100.00,NNW,332,1.0,4.0,91,0.00,,,0.60,23.000000,,2013-09-02 13:32:00,
2013-09-02 08:42:00,73.0,70.0,-100.00,NNW,332,1.0,4.0,91,0.00,,,0.60,23.000000,,2013-09-02 13:42:00,
2013-09-02 08:52:00,73.0,70.0,-100.00,NNW,332,1.0,4.0,91,0.00,,,0.60,23.000000,,2013-09-02 13:52:00,
2013-09-02 09:02:00,78.0,71.0,-100.00,NNW,333,3.0,5.0,80,0.00,,,0.60,168.000000,,2013-09-02 14:02:00,
2013-09-02 09:22:00,78.0,71.0,-100.00,NNW,333,3.0,5.0,80,0.00,,,0.60,168.000000,,2013-09-02 14:22:00,
2013-09-02 09:32:00,78.0,71.0,-100.00,NNW,333,3.0,5.0,80,0.00,,,0.60,168.000000,,2013-09-02 14:32:00,
2013-09-02 09:43:00,78.0,71.0,-100.00,NNW,333,3.0,5.0,80,0.00,,,0.60,168.000000,,2013-09-02 14:43:00,
2013-09-02 09:52:00,78.0,71.0,-100.00,NNW,333,3.0,5.0,80,0.00,,,0.60,168.000000,,2013-09-02 14:52:00,
2013-09-02 10:02:00,83.0,73.0,-100.00,West,266,5.0,8.0,72,0.00,,,0.60,421.000000,,2013-09-02 15:02:00,
2013-09-02 10:23:00,83.0,73.0,-100.00,West,266,5.0,8.0,72,0.00,,,0.60,421.000000,,2013-09-02 15:23:00,
2013-09-02 10:34:00,83.0,73.0,-100.00,West,266,5.0,8.0,72,0.00,,,0.60,421.000000,,2013-09-02 15:34:00,
2013-09-02 10:45:00,83.0,73.0,-100.00,West,266,5.0,8.0,72,0.00,,,0.60,421.000000,,2013-09-02 15:45:00,
2013-09-02 10:55:00,83.0,73.0,-100.00,West,266,5.0,8.0,72,0.00,,,0.60,421.000000,,2013-09-02 15:55:00,
2013-09-02 11:02:00,86.0,73.0,-100.00,SW,232,4.0,10.0,65,0.00,,,0.60,676.000000,,2013-09-02 16:02:00,
2013-09-02 11:43:00,86.0,73.0,-100.00,SW,232,4.0,10.0,65,0.00,,,0.60,676.000000,,2013-09-02 16:43:00,
2013-09-02 11:53:00,86.0,73.0,-100.00,SW,232,4.0,10.0,65,0.00,,,0.60,676.000000,,2013-09-02 16:53:00,
2013-09-02 12:02:00,85.0,72.0,-100.00,South,189,3.0,8.0,66,0.00,,,0.60,409.000000,,2013-09-02 17:02:00,
2013-09-02 12:45:00,85.0,72.0,-100.00,South,189,3.0,8.0,66,0.00,,,0.60,409.000000,,2013-09-02 17:45:00,
2013-09-02 12:52:00,85.0,72.0,-100.00,South,189,3.0,8.0,66,0.00,,,0.60,409.000000,,2013-09-02 17:52:00,
2013-09-02 13:02:00,90.0,73.0,-100.00,South,181,3.0,6.0,58,0.00,,,0.60,599.000000,,2013-09-02 18:02:00,
2013-09-02 13:42:00,90.0,73.0,-100.00,South,181,3.0,6.0,58,0.00,,,0.60,599.000000,,2013-09-02 18:42:00,
2013-09-02 13:52:00,90.0,73.0,-100.00,South,181,3.0,6.0,58,0.00,,,0.60,599.000000,,2013-09-02 18:52:00,
2013-09-02 14:02:00,92.0,73.0,-100.00,SSW,197,4.0,7.0,55,0.00,,,0.60,949.000000,,2013-09-02 19:02:00,
2013-09-02 14:42:00,92.0,73.0,-100.00,SSW,197,4.0,7.0,55,0.00,,,0.60,949.000000,,2013-09-02 19:42:00,
2013-09-02 14:52:00,92.0,73.0,-100.00,SSW,197,4.0,7.0,55,0.00,,,0.60,949.000000,,2013-09-02 19:52:00,
2013-09-02 15:02:00,94.0,71.0,-100.00,WSW,248,5.0,9.0,48,0.00,,,0.60,906.000000,,2013-09-02 20:02:00,
2013-09-02 15:22:00,94.0,71.0,-100.00,WSW,248,5.0,9.0,48,0.00,,,0.60,906.000000,,2013-09-02 20:22:00,
2013-09-02 15:33:00,94.0,71.0,-100.00,WSW,248,5.0,9.0,48,0.00,,,0.60,906.000000,,2013-09-02 20:33:00,
2013-09-02 15:42:00,94.0,71.0,-100.00,WSW,248,5.0,9.0,48,0.00,,,0.60,906.000000,,2013-09-02 20:42:00,
2013-09-02 15:52:00,94.0,71.0,-100.00,WSW,248,5.0,9.0,48,0.00,,,0.60,906.000000,,2013-09-02 20:52:00,
2013-09-02 16:02:00,94.0,71.0,-100.00,WNW,290,5.0,12.0,47,0.00,,,0.60,770.000000,,2013-09-02 21:02:00,
2013-09-02 16:23:00,94.0,71.0,-100.00,WNW,290,5.0,12.0,47,0.00,,,0.60,770.000000,,2013-09-02 21:23:00,
2013-09-02 16:34:00,94.0,71.0,-100.00,WNW,290,5.0,12.0,47,0.00,,,0.60,770.000000,,2013-09-02 21:34:00,
2013-09-02 16:44:00,94.0,71.0,-100.00,WNW,290,5.0,12.0,47,0.00,,,0.60,770.000000,,2013-09-02 21:44:00,
2013-09-02 16:55:00,94.0,71.0,-100.00,WNW,290,5.0,12.0,47,0.00,,,0.60,770.000000,,2013-09-02 21:55:00,
2013-09-02 17:02:00,93.0,68.0,-100.00,WNW,283,5.0,16.0,45,0.00,,,0.60,620.000000,,2013-09-02 22:02:00,
2013-09-02 17:24:00,93.0,68.0,-100.00,WNW,283,5.0,16.0,45,0.00,,,0.60,620.000000,,2013-09-02 22:24:00,
2013-09-02 17:33:00,93.0,68.0,-100.00,WNW,283,5.0,16.0,45,0.00,,,0.60,620.000000,,2013-09-02 22:33:00,
2013-09-02 17:44:00,93.0,68.0,-100.00,WNW,283,5.0,16.0,45,0.00,,,0.60,620.000000,,2013-09-02 22:44:00,
2013-09-02 17:54:00,93.0,68.0,-100.00,WNW,283,5.0,16.0,45,0.00,,,0.60,620.000000,,2013-09-02 22:54:00,
2013-09-02 18:22:00,95.0,68.0,-100.00,NNE,21,2.0,7.0,41,0.00,,,0.60,409.000000,,2013-09-02 23:22:00,
2013-09-02 18:34:00,95.0,68.0,-100.00,NNE,21,2.0,7.0,41,0.00,,,0.60,409.000000,,2013-09-02 23:34:00,
2013-09-02 18:42:00,95.0,68.0,-100.00,NNE,21,2.0,7.0,41,0.00,,,0.60,409.000000,,2013-09-02 23:42:00,
2013-09-02 18:53:00,95.0,68.0,-100.00,NNE,21,2.0,7.0,41,0.00,,,0.60,409.000000,,2013-09-02 23:53:00,
2013-09-02 19:01:00,95.0,68.0,-100.00,NNE,21,2.0,7.0,41,0.00,,,0.60,409.000000,,2013-09-03 00:01:00,
2013-09-02 19:02:00,87.0,74.0,-100.00,ESE,118,2.0,6.0,65,0.00,,,0.60,170.000000,,2013-09-03 00:02:00,
2013-09-02 19:22:00,87.0,74.0,-100.00,ESE,118,2.0,6.0,65,0.00,,,0.60,170.000000,,2013-09-03 00:22:00,
2013-09-02 19:32:00,87.0,74.0,-100.00,ESE,118,2.0,6.0,65,0.00,,,0.60,170.000000,,2013-09-03 00:32:00,
2013-09-02 19:42:00,87.0,74.0,-100.00,ESE,118,2.0,6.0,65,0.00,,,0.60,170.000000,,2013-09-03 00:42:00,
2013-09-02 19:52:00,87.0,74.0,-100.00,ESE,118,2.0,6.0,65,0.00,,,0.60,170.000000,,2013-09-03 00:52:00,
2013-09-02 20:02:00,82.0,74.0,-100.00,ESE,113,0.0,5.0,78,0.00,,,0.60,18.000000,,2013-09-03 01:02:00,
2013-09-02 20:22:00,82.0,74.0,-100.00,ESE,113,0.0,5.0,78,0.00,,,0.60,18.000000,,2013-09-03 01:22:00,
2013-09-02 20:32:00,82.0,74.0,-100.00,ESE,113,0.0,5.0,78,0.00,,,0.60,18.000000,,2013-09-03 01:32:00,
2013-09-02 20:42:00,82.0,74.0,-100.00,ESE,113,0.0,5.0,78,0.00,,,0.60,18.000000,,2013-09-03 01:42:00,
2013-09-02 20:52:00,82.0,74.0,-100.00,ESE,113,0.0,5.0,78,0.00,,,0.60,18.000000,,2013-09-03 01:52:00,
2013-09-02 21:02:00,80.0,75.0,-100.00,North,355,1.0,2.0,84,0.00,,,-99.99,0.000000,,2013-09-03 02:02:00,
2013-09-02 21:42:00,80.0,75.0,-100.00,North,355,1.0,2.0,84,0.00,,,-99.99,0.000000,,2013-09-03 02:42:00,
2013-09-02 21:52:00,80.0,75.0,-100.00,North,355,1.0,2.0,84,0.00,,,-99.99,0.000000,,2013-09-03 02:52:00,
2013-09-02 22:02:00,78.0,73.0,-100.00,SSW,201,0.0,3.0,84,0.00,,,0.60,0.000000,,2013-09-03 03:02:00,
2013-09-02 22:23:00,78.0,73.0,-100.00,SSW,201,0.0,3.0,84,0.00,,,0.60,0.000000,,2013-09-03 03:23:00,
2013-09-02 22:35:00,78.0,73.0,-100.00,SSW,201,0.0,3.0,84,0.00,,,0.60,0.000000,,2013-09-03 03:35:00,
2013-09-02 22:45:00,78.0,73.0,-100.00,SSW,201,0.0,3.0,84,0.00,,,0.60,0.000000,,2013-09-03 03:45:00,
2013-09-02 22:55:00,78.0,73.0,-100.00,SSW,201,0.0,3.0,84,0.00,,,0.60,0.000000,,2013-09-03 03:55:00,
2013-09-02 23:02:00,77.0,73.0,-100.00,WSW,249,1.0,3.0,87,0.00,,,0.60,0.000000,,2013-09-03 04:02:00,
2013-09-02 23:25:00,77.0,73.0,-100.00,WSW,249,1.0,3.0,87,0.00,,,0.60,0.000000,,2013-09-03 04:25:00,
2013-09-02 23:34:00,77.0,73.0,-100.00,WSW,249,1.0,3.0,87,0.00,,,0.60,0.000000,,2013-09-03 04:34:00,
2013-09-02 23:44:00,77.0,73.0,-100.00,WSW,249,1.0,3.0,87,0.00,,,0.60,0.000000,,2013-09-03 04:44:00,
2013-09-02 23:53:00,77.0,73.0,-100.00,WSW,249,1.0,3.0,87,0.00,,,0.60,0.000000,,2013-09-03 04:53:00,